TAF Text Data
IDs:
Format:
Raw Decoded Include METAR

Data at: 0708 UTC 01 Aug 2021

KHSV 010555Z 0106/0206 VRB03KT P6SM VCTS SCT050CB BKN250
  TEMPO 0106/0107 3SM TSRA BR BKN035CB
  FM010900 VRB03KT P6SM VCSH SCT035 BKN250
  FM011300 30005KT P6SM VCSH BKN030
  FM012100 33010KT P6SM SCT250